createdAt,value
2018-11-10T00:01:41.388Z,99988.92
2018-11-10T00:04:10.456Z,99988.52
2018-11-10T00:06:38.924Z,99988.12
2018-11-10T00:09:08.188Z,99988.15
2018-11-10T00:11:36.790Z,99986.50
2018-11-10T00:14:07.713Z,99987.81
2018-11-10T00:16:36.481Z,99972.64
2018-11-10T00:19:04.870Z,99965.69
2018-11-10T00:21:33.316Z,99968.41
2018-11-10T00:24:01.767Z,99964.08
2018-11-10T00:26:30.405Z,99963.64
2018-11-10T00:28:59.021Z,99961.09
2018-11-10T00:31:27.861Z,99964.66
2018-11-10T00:33:56.603Z,99957.20
2018-11-10T00:36:25.001Z,99954.65
2018-11-10T00:38:53.872Z,99950.28
2018-11-10T00:41:22.354Z,99951.59
2018-11-10T00:43:50.796Z,99947.23
2018-11-10T00:46:19.261Z,99938.06
2018-11-10T00:48:47.784Z,99945.82
2018-11-10T00:51:16.266Z,99940.18
2018-11-10T00:53:44.759Z,99938.06
2018-11-10T00:56:13.281Z,99932.02
2018-11-10T00:58:41.738Z,99928.09
2018-11-10T01:01:10.322Z,99932.93
2018-11-10T01:03:39.443Z,99927.30
2018-11-10T01:06:07.868Z,99921.19
2018-11-10T01:08:36.335Z,99917.25
2018-11-10T01:11:05.045Z,99916.82
2018-11-10T01:13:33.433Z,99910.78
2018-11-10T01:16:01.836Z,99910.81
2018-11-10T01:18:30.248Z,99893.06
2018-11-10T01:20:58.662Z,99899.94
2018-11-10T01:23:27.855Z,99899.13
2018-11-10T01:25:56.313Z,99894.34
2018-11-10T01:28:24.717Z,99893.97
2018-11-10T01:30:53.737Z,99893.06
2018-11-10T01:33:22.175Z,99885.58
2018-11-10T01:35:50.627Z,99883.33
2018-11-10T01:38:19.200Z,99878.39
2018-11-10T01:40:47.644Z,99876.53
2018-11-10T01:43:16.243Z,99872.50
2018-11-10T01:45:44.668Z,99870.69
2018-11-10T01:48:13.126Z,99869.74
2018-11-10T01:50:41.630Z,99855.30
2018-11-10T01:53:13.177Z,99848.65
2018-11-10T01:55:41.678Z,99852.47
2018-11-10T01:58:10.127Z,99848.47
2018-11-10T02:00:39.249Z,99842.72
2018-11-10T02:03:07.677Z,99838.28
2018-11-10T02:05:36.166Z,99838.57
2018-11-10T02:08:05.034Z,99833.73
2018-11-10T02:10:33.472Z,99839.80
2018-11-10T02:13:02.266Z,99830.56
2018-11-10T02:15:30.732Z,99828.81
2018-11-10T02:17:59.158Z,99820.88
2018-11-10T02:20:27.713Z,99825.58
2018-11-10T02:22:56.368Z,99815.05
2018-11-10T02:25:24.812Z,99810.22
2018-11-10T02:27:53.288Z,99810.61
2018-11-10T02:30:21.782Z,99795.30
2018-11-10T02:32:50.335Z,99798.67
2018-11-10T02:35:18.877Z,99786.41
2018-11-10T02:37:47.298Z,99782.39
2018-11-10T02:40:16.012Z,99779.30
2018-11-10T02:42:45.213Z,99778.39
2018-11-10T02:45:14.554Z,99770.89
2018-11-10T02:47:43.846Z,99772.95
2018-11-10T02:52:46.558Z,99764.97
2018-11-10T02:55:14.964Z,99768.34
2018-11-10T02:57:43.553Z,99760.84
2018-11-10T03:00:13.303Z,99754.48
2018-11-10T03:02:41.784Z,99755.59
2018-11-10T03:05:10.998Z,99754.91
2018-11-10T03:07:39.894Z,99743.39
2018-11-10T03:10:09.875Z,99745.45
2018-11-10T03:12:38.996Z,99744.02
2018-11-10T03:15:09.200Z,99732.52
2018-11-10T03:17:37.866Z,99737.20
2018-11-10T03:20:09.505Z,99725.27
2018-11-10T03:22:38.455Z,99722.08
2018-11-10T03:25:07.111Z,99716.59
2018-11-10T03:27:35.649Z,99712.88
2018-11-10T03:30:04.138Z,99703.55
2018-11-10T03:32:32.577Z,99702.19
2018-11-10T03:35:00.971Z,99702.98
2018-11-10T03:37:29.531Z,99691.04
2018-11-10T03:39:57.940Z,99693.53
2018-11-10T03:42:26.377Z,99689.99
2018-11-10T03:44:54.782Z,99692.44
2018-11-10T03:47:23.368Z,99687.09
2018-11-10T03:49:51.848Z,99684.34
2018-11-10T03:52:24.141Z,99680.27
2018-11-10T03:54:52.550Z,99680.95
2018-11-10T03:57:20.964Z,99671.24
2018-11-10T03:59:49.331Z,99675.05
2018-11-10T04:02:18.288Z,99666.20
2018-11-10T04:04:46.711Z,99667.82
2018-11-10T04:07:15.153Z,99663.44
2018-11-10T04:09:44.421Z,99656.41
2018-11-10T04:12:12.901Z,99660.77
2018-11-10T04:14:41.292Z,99659.70
2018-11-10T04:17:09.750Z,99653.09
2018-11-10T04:19:38.143Z,99651.25
2018-11-10T04:22:06.908Z,99649.41
2018-11-10T04:24:36.148Z,99653.30
2018-11-10T04:27:05.122Z,99646.20
2018-11-10T04:29:33.525Z,99652.16
2018-11-10T04:32:01.966Z,99650.34
2018-11-10T04:34:30.374Z,99650.59
2018-11-10T04:36:58.824Z,99655.80
2018-11-10T04:39:27.421Z,99651.24
2018-11-10T04:41:56.138Z,99652.89
2018-11-10T04:44:26.774Z,99660.72
2018-11-10T04:46:55.296Z,99662.42
2018-11-10T04:49:23.712Z,99661.02
2018-11-10T04:51:52.175Z,99650.99
2018-11-10T04:54:20.711Z,99640.01
2018-11-10T04:56:49.081Z,99653.56
2018-11-10T04:59:17.478Z,99650.07
2018-11-10T05:01:45.919Z,99648.81
2018-11-10T05:04:14.377Z,99653.14
2018-11-10T05:06:42.788Z,99645.69
2018-11-10T05:09:11.794Z,99645.21
2018-11-10T05:11:40.615Z,99642.58
2018-11-10T05:14:09.233Z,99642.19
2018-11-10T05:16:37.755Z,99639.56
2018-11-10T05:19:06.484Z,99631.34
2018-11-10T05:21:34.895Z,99633.28
2018-11-10T05:24:03.571Z,99632.08
2018-11-10T05:26:31.993Z,99633.19
2018-11-10T05:29:00.375Z,99629.58
2018-11-10T05:31:28.868Z,99626.70
2018-11-10T05:33:57.306Z,99629.52
2018-11-10T05:36:25.742Z,99624.90
2018-11-10T05:38:54.139Z,99630.29
2018-11-10T05:41:22.538Z,99623.91
2018-11-10T05:43:52.354Z,99617.48
2018-11-10T05:46:20.756Z,99623.71
2018-11-10T05:48:52.967Z,99626.02
2018-11-10T05:51:21.385Z,99622.72
2018-11-10T05:53:49.820Z,99622.46
2018-11-10T05:56:18.205Z,99624.34
2018-11-10T05:58:46.845Z,99626.58
2018-11-10T06:01:15.264Z,99623.09
2018-11-10T06:03:43.788Z,99628.81
2018-11-10T06:06:12.195Z,99626.58
2018-11-10T06:08:40.600Z,99620.98
2018-11-10T06:11:10.508Z,99621.13
2018-11-10T06:13:39.044Z,99626.89
2018-11-10T06:16:07.566Z,99631.80
2018-11-10T06:18:36.040Z,99632.33
2018-11-10T06:21:04.452Z,99622.38
2018-11-10T06:23:32.873Z,99623.34
2018-11-10T06:26:01.363Z,99626.83
2018-11-10T06:28:29.814Z,99624.60
2018-11-10T06:30:58.222Z,99625.13
2018-11-10T06:33:26.632Z,99621.77
2018-11-10T06:35:55.053Z,99624.44
2018-11-10T06:38:23.475Z,99627.14
2018-11-10T06:40:52.916Z,99633.22
2018-11-10T06:43:21.357Z,99632.78
2018-11-10T06:45:49.859Z,99627.19
2018-11-10T06:48:18.382Z,99626.27
2018-11-10T06:50:46.975Z,99623.25
2018-11-10T06:53:15.374Z,99629.77
2018-11-10T07:00:40.573Z,99638.42
2018-11-10T07:03:08.993Z,99645.38
2018-11-10T07:05:37.419Z,99648.05
2018-11-10T07:08:06.706Z,99657.13
2018-11-10T07:10:35.138Z,99660.19
2018-11-10T07:13:03.571Z,99666.31
2018-11-10T07:15:31.960Z,99664.00
2018-11-10T07:18:00.453Z,99668.28
2018-11-10T07:20:28.786Z,99662.11
2018-11-10T07:22:57.244Z,99663.80
2018-11-10T07:25:25.689Z,99666.77
2018-11-10T07:27:54.960Z,99667.16
2018-11-10T07:30:23.383Z,99667.95
2018-11-10T07:32:51.839Z,99677.92
2018-11-10T07:35:20.494Z,99677.80
2018-11-10T07:37:48.940Z,99677.75
2018-11-10T07:40:17.329Z,99683.78
2018-11-10T07:42:46.113Z,99681.02
2018-11-10T07:45:15.707Z,99675.73
2018-11-10T07:47:44.941Z,99680.45
2018-11-10T07:50:13.600Z,99681.19
2018-11-10T07:52:42.777Z,99692.47
2018-11-10T07:55:13.084Z,99689.72
2018-11-10T08:00:16.664Z,99696.48
2018-11-10T08:02:45.094Z,99694.73
2018-11-10T08:05:14.387Z,99698.14
2018-11-10T08:07:43.687Z,99691.92
2018-11-10T08:10:12.902Z,99687.85
2018-11-10T08:12:41.391Z,99684.70
2018-11-10T08:17:46.750Z,99697.59
2018-11-10T08:20:15.553Z,99705.38
2018-11-10T08:22:44.000Z,99697.02
2018-11-10T08:25:13.839Z,99690.31
2018-11-10T08:27:42.439Z,99691.05
2018-11-10T08:32:46.921Z,99695.77
2018-11-10T08:35:15.653Z,99709.69
2018-11-10T08:37:44.086Z,99719.27
2018-11-10T08:40:14.626Z,99712.31
2018-11-10T08:42:43.095Z,99714.41
2018-11-10T08:45:12.876Z,99708.23
2018-11-10T08:47:42.250Z,99717.38
2018-11-10T08:52:45.954Z,99729.45
2018-11-10T08:55:14.912Z,99729.84
2018-11-10T08:57:43.821Z,99731.55
2018-11-10T09:00:12.902Z,99727.55
2018-11-10T09:02:41.425Z,99735.77
2018-11-10T09:05:11.296Z,99730.38
2018-11-10T09:07:39.868Z,99724.16
2018-11-10T09:10:10.321Z,99721.34
2018-11-10T09:12:38.827Z,99723.05
2018-11-10T09:15:09.401Z,99718.05
2018-11-10T09:17:37.929Z,99720.48
2018-11-10T09:20:10.595Z,99714.30
2018-11-10T09:22:39.234Z,99716.26
2018-11-10T09:25:09.816Z,99712.66
2018-11-10T09:27:39.294Z,99719.90
2018-11-10T09:30:08.946Z,99714.89
2018-11-10T09:32:40.694Z,99719.08
2018-11-10T09:35:10.511Z,99716.68
2018-11-10T09:37:39.186Z,99721.69
2018-11-10T09:40:09.862Z,99730.35
2018-11-10T09:42:38.744Z,99733.70
2018-11-10T09:45:08.794Z,99729.23
2018-11-10T09:47:37.811Z,99734.44
2018-11-10T09:50:13.145Z,99735.13
2018-11-10T09:52:42.174Z,99735.13
2018-11-10T09:55:10.811Z,99735.94
2018-11-10T09:57:39.484Z,99731.37
2018-11-10T10:00:13.307Z,99724.68
2018-11-10T10:02:42.228Z,99726.63
2018-11-10T10:05:10.603Z,99718.98
2018-11-10T10:07:39.992Z,99731.16
2018-11-10T10:12:48.900Z,99728.85
2018-11-10T10:15:18.369Z,99726.61
2018-11-10T10:17:47.400Z,99727.00
2018-11-10T10:20:18.614Z,99722.12
2018-11-10T10:22:47.955Z,99726.41
2018-11-10T10:25:17.304Z,99722.37
2018-11-10T10:27:46.805Z,99725.66
2018-11-10T10:30:17.452Z,99724.25
2018-11-10T10:32:47.004Z,99726.44
2018-11-10T10:35:16.027Z,99737.83
2018-11-10T10:37:45.379Z,99736.52
2018-11-10T10:40:14.441Z,99729.94
2018-11-10T10:42:43.687Z,99723.36
2018-11-10T10:45:19.823Z,99718.94
2018-11-10T10:47:48.258Z,99720.25
2018-11-10T10:50:18.162Z,99721.51
2018-11-10T10:52:46.694Z,99718.94
2018-11-10T10:55:16.392Z,99716.30
2018-11-10T10:57:45.795Z,99726.05
2018-11-10T11:04:02.283Z,99721.00
2018-11-10T11:06:32.259Z,99718.91
2018-11-10T11:09:00.725Z,99727.78
2018-11-10T11:11:29.260Z,99725.69
2018-11-10T11:14:00.765Z,99721.80
2018-11-10T11:16:29.398Z,99733.39
2018-11-10T11:18:57.973Z,99729.11
2018-11-10T11:21:26.532Z,99730.12
2018-11-10T11:23:54.949Z,99729.70
2018-11-10T11:26:23.404Z,99721.38
2018-11-10T11:28:51.928Z,99724.05
2018-11-10T11:31:20.483Z,99718.80
2018-11-10T11:33:49.249Z,99719.72
2018-11-10T11:36:18.207Z,99706.57
2018-11-10T11:38:46.633Z,99710.46
2018-11-10T11:41:15.334Z,99709.09
2018-11-10T11:43:43.876Z,99696.38
2018-11-10T11:46:12.492Z,99697.16
2018-11-10T11:48:41.165Z,99693.99
2018-11-10T11:51:09.598Z,99694.47
2018-11-10T11:53:38.174Z,99688.83
2018-11-10T11:56:06.639Z,99687.18
2018-11-10T11:58:35.138Z,99684.16
2018-11-10T12:01:03.705Z,99683.44
2018-11-10T12:03:32.168Z,99678.72
2018-11-10T12:06:00.635Z,99678.39
2018-11-10T12:08:29.714Z,99688.61
2018-11-10T12:10:58.172Z,99683.02
2018-11-10T12:13:26.663Z,99682.68
2018-11-10T12:15:55.084Z,99689.73
2018-11-10T12:18:23.484Z,99685.84
2018-11-10T12:20:52.079Z,99678.41
2018-11-10T12:23:20.893Z,99676.25
2018-11-10T12:25:49.313Z,99674.94
2018-11-10T12:28:17.815Z,99670.02
2018-11-10T12:30:46.431Z,99669.14
2018-11-10T12:33:14.900Z,99673.09
2018-11-10T12:35:43.522Z,99669.09
2018-11-10T12:38:12.010Z,99667.30
2018-11-10T12:40:41.045Z,99655.55
2018-11-10T12:43:09.485Z,99658.48
2018-11-10T12:45:39.610Z,99656.23
2018-11-10T12:48:08.321Z,99652.63
2018-11-10T12:50:36.774Z,99648.14
2018-11-10T12:53:05.413Z,99648.73
2018-11-10T12:55:36.686Z,99646.98
2018-11-10T12:58:05.666Z,99645.72
2018-11-10T13:00:34.166Z,99637.39
2018-11-10T13:03:02.593Z,99631.35
2018-11-10T13:05:31.001Z,99628.84
2018-11-10T13:07:59.575Z,99624.06
2018-11-10T13:10:28.079Z,99624.00
2018-11-10T13:12:56.559Z,99613.98
2018-11-10T13:15:25.042Z,99622.27
2018-11-10T13:17:53.666Z,99627.61
2018-11-10T13:20:22.134Z,99628.06
2018-11-10T13:22:50.651Z,99631.95
2018-11-10T13:25:19.269Z,99630.84
2018-11-10T13:27:47.715Z,99629.19
2018-11-10T13:30:16.827Z,99625.73
2018-11-10T13:32:45.550Z,99625.78
2018-11-10T13:35:13.986Z,99621.01
2018-11-10T13:37:42.441Z,99614.44
2018-11-10T13:40:11.363Z,99612.73
2018-11-10T13:42:39.802Z,99614.44
2018-11-10T13:45:10.270Z,99616.14
2018-11-10T13:47:38.883Z,99615.66
2018-11-10T13:50:09.621Z,99615.75
2018-11-10T13:52:38.967Z,99609.63
2018-11-10T13:55:07.234Z,99601.73
2018-11-10T13:57:35.664Z,99595.70
2018-11-10T14:00:05.254Z,99592.30
2018-11-10T14:02:33.685Z,99590.20
2018-11-10T14:05:02.320Z,99580.53
2018-11-10T14:07:30.915Z,99576.61
2018-11-10T14:09:59.351Z,99576.70
2018-11-10T14:12:27.991Z,99569.27
2018-11-10T14:14:56.486Z,99564.88
2018-11-10T14:17:25.225Z,99562.25
2018-11-10T14:19:53.860Z,99562.63
2018-11-10T14:22:22.283Z,99562.25
2018-11-10T14:24:50.839Z,99557.53
2018-11-10T14:27:19.469Z,99560.55
2018-11-10T14:29:48.013Z,99560.55
2018-11-10T14:32:16.476Z,99555.67
2018-11-10T14:34:44.921Z,99553.88
2018-11-10T14:37:13.345Z,99557.80
2018-11-10T14:39:41.777Z,99564.88
2018-11-10T14:42:10.540Z,99558.75
2018-11-10T14:44:39.021Z,99560.55
2018-11-10T14:47:07.473Z,99559.67
2018-11-10T14:49:36.000Z,99558.36
2018-11-10T14:52:04.861Z,99564.48
2018-11-10T14:54:33.235Z,99557.05
2018-11-10T14:59:36.379Z,99555.55
2018-11-10T15:02:05.346Z,99550.69
2018-11-10T15:04:33.819Z,99559.83
2018-11-10T15:07:02.383Z,99561.53
2018-11-10T15:09:30.945Z,99560.55
2018-11-10T15:12:01.607Z,99564.48
2018-11-10T15:14:29.986Z,99561.86
2018-11-10T15:16:58.557Z,99566.58
2018-11-10T15:19:26.989Z,99571.36
2018-11-10T15:21:55.436Z,99578.80
2018-11-10T15:24:26.201Z,99575.30
2018-11-10T15:26:54.668Z,99578.26
2018-11-10T15:29:23.393Z,99581.66
2018-11-10T15:31:52.669Z,99589.10
2018-11-10T15:34:21.298Z,99593.83
2018-11-10T15:36:49.821Z,99601.23
2018-11-10T15:39:18.365Z,99595.52
2018-11-10T15:41:46.890Z,99593.83
2018-11-10T15:44:15.498Z,99599.86
2018-11-10T15:46:44.013Z,99608.61
2018-11-10T15:49:12.434Z,99620.84
2018-11-10T15:51:40.896Z,99631.35
2018-11-10T15:54:09.347Z,99618.47
2018-11-10T15:56:37.772Z,99634.39
2018-11-10T15:59:06.343Z,99624.95
2018-11-10T16:01:34.770Z,99617.18
2018-11-10T16:04:03.213Z,99624.67
2018-11-10T16:06:31.786Z,99612.07
2018-11-10T16:09:00.394Z,99609.95
2018-11-10T16:11:28.911Z,99618.37
2018-11-10T16:13:57.326Z,99611.85
2018-11-10T16:16:26.021Z,99621.05
2018-11-10T16:19:01.511Z,99621.44
2018-11-10T16:21:30.062Z,99615.34
2018-11-10T16:23:58.584Z,99616.52
2018-11-10T16:26:27.258Z,99611.23
2018-11-10T16:28:55.817Z,99614.25
2018-11-10T16:31:24.936Z,99603.73
2018-11-10T16:33:53.383Z,99610.76
2018-11-10T16:36:21.801Z,99605.44
2018-11-10T16:38:50.528Z,99605.52
2018-11-10T16:41:19.132Z,99601.58
2018-11-10T16:43:47.576Z,99602.03
2018-11-10T16:46:16.116Z,99597.64
2018-11-10T16:48:44.714Z,99597.64
2018-11-10T16:51:16.540Z,99590.66
2018-11-10T16:53:44.976Z,99605.52
2018-11-10T16:56:13.425Z,99597.64
2018-11-10T16:58:41.947Z,99591.91
2018-11-10T17:01:10.442Z,99598.54
2018-11-10T17:03:38.904Z,99610.37
2018-11-10T17:06:07.326Z,99603.35
2018-11-10T17:08:35.772Z,99609.44
2018-11-10T17:11:04.213Z,99607.20
2018-11-10T17:13:32.668Z,99617.72
2018-11-10T17:16:01.213Z,99638.69
2018-11-10T17:18:29.793Z,99632.95
2018-11-10T17:21:01.007Z,99621.52
2018-11-10T17:23:29.530Z,99635.73
2018-11-10T17:25:57.936Z,99640.70
2018-11-10T17:28:26.472Z,99633.13
2018-11-10T17:30:56.924Z,99634.74
2018-11-10T17:33:25.511Z,99631.58
2018-11-10T17:35:54.088Z,99631.52
2018-11-10T17:38:22.633Z,99634.00
2018-11-10T17:40:51.074Z,99636.24
2018-11-10T17:43:19.516Z,99633.08
2018-11-10T17:45:48.042Z,99641.80
2018-11-10T17:48:16.560Z,99637.86
2018-11-10T17:50:45.033Z,99636.97
2018-11-10T17:53:13.542Z,99638.28
2018-11-10T17:55:42.173Z,99625.52
2018-11-10T17:58:10.722Z,99620.71
2018-11-10T18:00:39.131Z,99625.19
2018-11-10T18:03:07.703Z,99623.55
2018-11-10T18:05:36.178Z,99627.58
2018-11-10T18:08:04.657Z,99627.19
2018-11-10T18:10:33.225Z,99632.51
2018-11-10T18:13:01.914Z,99629.88
2018-11-10T18:15:30.392Z,99631.25
2018-11-10T18:17:58.813Z,99633.82
2018-11-10T18:20:27.252Z,99637.77
2018-11-10T18:22:55.714Z,99643.41
2018-11-10T18:25:24.267Z,99640.34
2018-11-10T18:27:52.627Z,99635.14
2018-11-10T18:30:21.154Z,99634.27
2018-11-10T18:32:49.692Z,99629.94
2018-11-10T18:35:18.144Z,99624.83
2018-11-10T18:37:50.663Z,99630.97
2018-11-10T18:40:19.075Z,99624.07
2018-11-10T18:42:47.524Z,99625.53
2018-11-10T18:45:16.074Z,99635.27
2018-11-10T18:47:44.562Z,99635.32
2018-11-10T18:50:14.310Z,99644.91
2018-11-10T18:52:43.125Z,99635.32
2018-11-10T18:55:12.266Z,99639.27
2018-11-10T18:57:40.953Z,99645.45
2018-11-10T19:00:11.886Z,99639.35
2018-11-10T19:02:41.153Z,99649.00
2018-11-10T19:05:11.481Z,99646.42
2018-11-10T19:07:40.281Z,99651.23
2018-11-10T19:10:11.132Z,99649.05
2018-11-10T19:12:40.071Z,99635.91
2018-11-10T19:15:11.016Z,99635.91
2018-11-10T19:20:14.506Z,99641.45
2018-11-10T19:22:43.664Z,99637.13
2018-11-10T19:25:13.897Z,99640.20
2018-11-10T19:27:42.534Z,99637.57
2018-11-10T19:30:19.477Z,99645.84
2018-11-10T19:32:48.848Z,99644.08
2018-11-10T19:35:18.271Z,99633.63
2018-11-10T19:37:47.114Z,99639.36
2018-11-10T19:40:15.662Z,99647.25
2018-11-10T19:42:45.277Z,99653.33
2018-11-10T19:45:13.795Z,99652.50
2018-11-10T19:47:44.155Z,99659.91
2018-11-10T19:50:13.434Z,99665.11
2018-11-10T19:52:41.953Z,99677.32
2018-11-10T19:55:13.023Z,99669.05
2018-11-10T19:57:41.690Z,99675.23
2018-11-10T20:00:12.746Z,99684.03
2018-11-10T20:02:41.378Z,99681.84
2018-11-10T20:07:44.257Z,99681.41
2018-11-10T20:10:13.189Z,99683.64
2018-11-10T20:12:42.293Z,99683.70
2018-11-10T20:15:12.393Z,99676.26
2018-11-10T20:17:41.642Z,99692.50
2018-11-10T20:20:11.208Z,99687.38
2018-11-10T20:22:39.967Z,99689.59
2018-11-10T20:25:10.772Z,99694.01
2018-11-10T20:27:39.349Z,99688.70
2018-11-10T20:30:11.298Z,99688.75
2018-11-10T20:32:39.904Z,99689.20
2018-11-10T20:35:09.928Z,99696.30
2018-11-10T20:37:39.008Z,99692.94
2018-11-10T20:40:08.872Z,99703.98
2018-11-10T20:42:43.729Z,99711.42
2018-11-10T20:45:14.694Z,99706.80
2018-11-10T20:47:43.381Z,99701.63
2018-11-10T20:50:12.484Z,99697.61
2018-11-10T20:52:41.193Z,99701.16
2018-11-10T20:55:10.867Z,99713.50
2018-11-10T20:57:39.836Z,99717.58
2018-11-10T21:00:10.809Z,99704.05
2018-11-10T21:02:40.299Z,99710.75
2018-11-10T21:05:10.123Z,99715.59
2018-11-10T21:07:38.959Z,99718.16
2018-11-10T21:10:09.503Z,99720.73
2018-11-10T21:12:38.793Z,99729.98
2018-11-10T21:15:08.967Z,99726.52
2018-11-10T21:17:37.960Z,99727.83
2018-11-10T21:20:08.675Z,99723.46
2018-11-10T21:22:37.156Z,99726.04
2018-11-10T21:25:08.417Z,99729.98
2018-11-10T21:27:42.236Z,99732.16
2018-11-10T21:30:13.021Z,99723.80
2018-11-10T21:32:42.603Z,99724.28
2018-11-10T21:35:11.401Z,99720.00
2018-11-10T21:37:40.078Z,99715.59
2018-11-10T21:40:12.194Z,99717.77
2018-11-10T21:42:41.821Z,99719.86
2018-11-10T21:45:11.634Z,99721.17
2018-11-10T21:47:41.734Z,99723.55
2018-11-10T21:50:12.977Z,99726.31
2018-11-10T21:52:42.762Z,99735.16
2018-11-10T21:55:12.942Z,99736.47
2018-11-10T21:57:41.745Z,99739.09
2018-11-10T22:00:12.581Z,99730.88
2018-11-10T22:02:42.214Z,99737.09
2018-11-10T22:05:10.983Z,99736.00
2018-11-10T22:07:39.799Z,99726.91
2018-11-10T22:10:11.625Z,99738.28
2018-11-10T22:12:40.804Z,99734.34
2018-11-10T22:15:12.114Z,99741.83
2018-11-10T22:17:41.485Z,99743.59
2018-11-10T22:20:12.055Z,99753.12
2018-11-10T22:22:40.885Z,99752.64
2018-11-10T22:25:10.473Z,99744.32
2018-11-10T22:27:40.475Z,99754.78
2018-11-10T22:30:10.989Z,99748.66
2018-11-10T22:32:39.653Z,99740.73
2018-11-10T22:35:08.916Z,99737.19
2018-11-10T22:37:37.472Z,99746.29
2018-11-10T22:40:08.449Z,99741.13
2018-11-10T22:42:37.793Z,99737.19
2018-11-10T22:45:07.854Z,99735.39
2018-11-10T22:47:36.561Z,99738.41
2018-11-10T22:50:06.685Z,99742.44
2018-11-10T22:52:35.507Z,99749.92
2018-11-10T22:55:03.992Z,99741.70
2018-11-10T22:57:32.807Z,99739.08
2018-11-10T23:00:01.286Z,99743.88
2018-11-10T23:02:29.763Z,99741.30
2018-11-10T23:04:58.286Z,99733.95
2018-11-10T23:07:26.734Z,99726.31
2018-11-10T23:09:55.240Z,99740.14
2018-11-10T23:12:24.065Z,99742.50
2018-11-10T23:14:52.559Z,99743.52
2018-11-10T23:17:21.122Z,99739.71
2018-11-10T23:19:49.535Z,99728.55
2018-11-10T23:22:17.972Z,99723.44
2018-11-10T23:24:46.481Z,99734.42
2018-11-10T23:27:14.920Z,99740.27
2018-11-10T23:29:43.432Z,99744.88
2018-11-10T23:32:11.826Z,99743.30
2018-11-10T23:34:40.231Z,99741.59
2018-11-10T23:37:08.709Z,99738.19
2018-11-10T23:39:37.128Z,99746.97
2018-11-10T23:42:05.965Z,99733.98
2018-11-10T23:44:34.446Z,99726.28
2018-11-10T23:47:02.845Z,99734.16
2018-11-10T23:49:31.260Z,99730.73
2018-11-10T23:51:59.701Z,99736.83
2018-11-10T23:54:28.187Z,99743.78
2018-11-10T23:56:56.871Z,99748.58
2018-11-10T23:59:25.286Z,99743.73
